Time;durP1;ratioP1;P1;durP2;ratioP2;P2;SDS_P1;SDS_P2;PMS_P1;PMS_P2;Temp;Humidity;BMP_temperature;BMP_pressure;BME280_temperature;BME280_humidity;BME280_pressure;Samples;Min_cycle;Max_cycle;Signal;HPM_P1;HPM_P2
2022/09/09 00:02:17;;;;;;;;;;;;;;;18.34;39.25;100457.63;5070062;28;20321;-67
2022/09/09 00:04:47;;;;;;;;;;;;;;;18.31;38.85;100458.00;5069643;28;19920;-69
2022/09/09 00:07:17;;;;;;;;;;;;;;;18.26;39.16;100464.13;5086853;28;19927;-68
2022/09/09 00:09:49;;;;;;;;;;;;;;;18.22;39.12;100456.44;5069683;28;19928;-68
2022/09/09 00:12:23;;;;;;;;;;;;;;;18.19;39.09;100451.25;5066671;28;19948;-68
2022/09/09 00:14:52;;;;;;;;;;;;;;;18.13;39.20;100453.78;5061159;28;19924;-69
2022/09/09 00:17:27;;;;;;;;;;;;;;;18.11;39.36;100450.31;5070672;28;20193;-69
2022/09/09 00:19:58;;;;;;;;;;;;;;;18.07;39.60;100439.81;5069844;28;19920;-70
2022/09/09 00:22:27;;;;;;;;;;;;;;;18.04;39.32;100443.00;5070366;28;20023;-69
2022/09/09 00:24:55;;;;;;;;;;;;;;;18.01;39.57;100440.59;5069472;28;19920;-70
2022/09/09 00:27:30;;;;;;;;;;;;;;;17.98;39.83;100440.97;5070171;28;19935;-67
2022/09/09 00:29:59;;;;;;;;;;;;;;;17.95;39.72;100452.44;5068613;28;19974;-68
2022/09/09 00:32:29;;;;;;;;;;;;;;;17.93;39.85;100446.22;5068883;28;20429;-68
2022/09/09 00:35:00;;;;;;;;;;;;;;;17.91;39.87;100448.34;5068623;28;19947;-68
2022/09/09 00:37:31;;;;;;;;;;;;;;;17.89;39.66;100443.00;5068699;28;19927;-70
2022/09/09 00:40:00;;;;;;;;;;;;;;;17.88;39.63;100449.59;5069659;28;19924;-70
2022/09/09 00:42:35;;;;;;;;;;;;;;;17.87;40.12;100442.34;5068352;28;19921;-70
2022/09/09 00:45:13;;;;;;;;;;;;;;;17.85;40.08;100441.66;5069801;28;19920;-68
2022/09/09 00:47:45;;;;;;;;;;;;;;;17.85;40.80;100438.91;5067760;28;20359;-70
2022/09/09 00:50:18;;;;;;;;;;;;;;;17.84;40.83;100436.31;5065063;28;19920;-70
2022/09/09 00:52:48;;;;;;;;;;;;;;;17.83;40.69;100437.34;5047979;28;20395;-70
2022/09/09 00:55:21;;;;;;;;;;;;;;;17.82;40.57;100436.50;5059282;28;19927;-70
2022/09/09 00:57:51;;;;;;;;;;;;;;;17.81;40.53;100447.78;5062521;22;19922;-73
2022/09/09 01:00:21;;;;;;;;;;;;;;;17.79;40.78;100449.88;5012228;28;19968;-73
2022/09/09 01:02:54;;;;;;;;;;;;;;;17.77;40.23;100441.75;5008040;28;19921;-73
2022/09/09 01:05:28;;;;;;;;;;;;;;;17.76;40.50;100442.81;5006327;28;19933;-73
2022/09/09 01:07:56;;;;;;;;;;;;;;;17.75;40.42;100443.84;4991208;28;19927;-72
2022/09/09 01:10:30;;;;;;;;;;;;;;;17.75;40.59;100441.09;5004557;28;20029;-73
2022/09/09 01:13:01;;;;;;;;;;;;;;;17.74;40.17;100437.47;4971489;28;20004;-72
2022/09/09 01:15:32;;;;;;;;;;;;;;;17.76;40.38;100434.50;4981386;28;19925;-72
2022/09/09 01:18:02;;;;;;;;;;;;;;;17.75;40.61;100433.66;4990122;28;19921;-73
2022/09/09 01:20:39;;;;;;;;;;;;;;;17.76;40.72;100434.50;4998491;28;20369;-72
2022/09/09 01:23:16;;;;;;;;;;;;;;;17.76;40.63;100438.13;4999388;28;19975;-73
2022/09/09 01:26:08;;;;;;;;;;;;;;;17.77;40.42;100433.47;5022434;28;20519;-73
2022/09/09 01:28:39;;;;;;;;;;;;;;;17.79;40.33;100447.97;5018892;28;20007;-73
2022/09/09 01:31:12;;;;;;;;;;;;;;;17.79;40.36;100441.56;5009254;28;20258;-73
2022/09/09 01:33:43;;;;;;;;;;;;;;;17.79;40.40;100434.13;5009875;28;20289;-73
2022/09/09 01:36:14;;;;;;;;;;;;;;;17.79;40.80;100431.38;5009991;28;19925;-73
2022/09/09 01:38:49;;;;;;;;;;;;;;;17.81;40.39;100428.41;5005500;28;19980;-73
2022/09/09 01:41:18;;;;;;;;;;;;;;;17.80;40.76;100424.78;5043130;28;20391;-73
2022/09/09 01:43:58;;;;;;;;;;;;;;;17.80;40.58;100424.78;5026886;28;19921;-73
2022/09/09 01:46:27;;;;;;;;;;;;;;;17.80;40.73;100424.78;5044169;28;19956;-72
2022/09/09 01:48:57;;;;;;;;;;;;;;;17.80;40.85;100424.78;5009737;28;19924;-73
2022/09/09 01:51:25;;;;;;;;;;;;;;;17.79;40.79;100413.91;5019035;28;19979;-73
2022/09/09 01:53:52;;;;;;;;;;;;;;;17.79;40.94;100425.84;5001154;28;19971;-73
2022/09/09 01:56:30;;;;;;;;;;;;;;;17.79;40.49;100422.19;5027759;28;19952;-73
2022/09/09 01:59:04;;;;;;;;;;;;;;;17.79;40.96;100427.75;5017462;28;19975;-73
2022/09/09 02:01:41;;;;;;;;;;;;;;;17.78;40.53;100432.41;5009968;28;19928;-72
2022/09/09 02:04:15;;;;;;;;;;;;;;;17.77;40.50;100431.56;5017266;28;19983;-73
2022/09/09 02:06:45;;;;;;;;;;;;;;;17.77;40.52;100431.56;5028168;28;19924;-73
2022/09/09 02:09:25;;;;;;;;;;;;;;;17.76;40.78;100429.84;5018372;28;19921;-73
2022/09/09 02:11:58;;;;;;;;;;;;;;;17.77;41.03;100431.56;5026748;28;20362;-73
2022/09/09 02:14:39;;;;;;;;;;;;;;;17.77;40.87;100436.22;5009125;28;20318;-73
2022/09/09 02:17:09;;;;;;;;;;;;;;;17.77;40.97;100428.78;5008478;28;19921;-73
2022/09/09 02:20:03;;;;;;;;;;;;;;;17.78;41.09;100437.94;5039732;28;19921;-73
2022/09/09 02:22:42;;;;;;;;;;;;;;;17.77;41.03;100430.69;5009070;28;19921;-73
2022/09/09 02:25:11;;;;;;;;;;;;;;;17.77;40.52;100431.56;5042952;28;19927;-73
2022/09/09 02:27:40;;;;;;;;;;;;;;;17.78;41.04;100429.66;5014359;28;19921;-73
2022/09/09 02:30:10;;;;;;;;;;;;;;;17.78;40.63;100435.19;5026389;28;19971;-73
2022/09/09 02:32:43;;;;;;;;;;;;;;;17.79;41.09;100427.75;5026557;28;20008;-72
2022/09/09 02:35:15;;;;;;;;;;;;;;;17.80;40.76;100435.00;5009789;28;20345;-72
2022/09/09 02:37:45;;;;;;;;;;;;;;;17.80;41.04;100432.22;5008691;28;20387;-73
2022/09/09 02:40:16;;;;;;;;;;;;;;;17.80;41.10;100430.31;5042867;28;20384;-72
2022/09/09 02:42:49;;;;;;;;;;;;;;;17.79;41.02;100428.59;5016952;28;19960;-73
2022/09/09 02:45:21;;;;;;;;;;;;;;;17.80;40.66;100429.47;5024031;28;20336;-72
2022/09/09 02:47:54;;;;;;;;;;;;;;;17.81;40.60;100428.41;5010143;28;19920;-73
2022/09/09 02:50:26;;;;;;;;;;;;;;;17.80;40.76;100430.31;5042492;28;19927;-73
2022/09/09 02:53:01;;;;;;;;;;;;;;;17.80;40.75;100423.94;5008509;28;20055;-74
2022/09/09 02:55:32;;;;;;;;;;;;;;;17.80;40.53;100423.94;5016925;28;19921;-73
2022/09/09 02:58:00;;;;;;;;;;;;;;;17.80;40.64;100422.03;5027089;28;19933;-74
2022/09/09 03:00:31;;;;;;;;;;;;;;;17.80;40.79;100418.38;5009264;28;19956;-74
2022/09/09 03:03:01;;;;;;;;;;;;;;;17.80;40.60;100421.16;5008872;28;19921;-74
2022/09/09 03:05:28;;;;;;;;;;;;;;;17.79;40.95;100424.97;5009292;28;19971;-73
2022/09/09 03:07:56;;;;;;;;;;;;;;;17.79;40.48;100419.44;5026144;28;19964;-73
2022/09/09 03:10:24;;;;;;;;;;;;;;;17.77;41.02;100405.78;5009734;28;19928;-74
2022/09/09 03:12:52;;;;;;;;;;;;;;;17.77;40.73;100409.41;5027069;28;20440;-74
2022/09/09 03:15:21;;;;;;;;;;;;;;;17.77;40.89;100411.31;5009915;28;19936;-74
2022/09/09 03:17:50;;;;;;;;;;;;;;;17.76;40.98;100407.69;5008725;28;20308;-74
2022/09/09 03:20:19;;;;;;;;;;;;;;;17.75;40.97;100411.50;5010311;28;19959;-74
2022/09/09 03:22:47;;;;;;;;;;;;;;;17.75;40.94;100413.41;5045548;28;19947;-74
2022/09/09 03:25:15;;;;;;;;;;;;;;;17.75;40.94;100416.19;5012911;28;19952;-74
2022/09/09 03:27:42;;;;;;;;;;;;;;;17.74;40.89;100408.91;5045903;28;20649;-74
2022/09/09 03:30:13;;;;;;;;;;;;;;;17.73;40.81;100405.25;5018486;28;19921;-74
2022/09/09 03:32:42;;;;;;;;;;;;;;;17.73;40.86;100412.72;5012226;28;19952;-74
2022/09/09 03:35:17;;;;;;;;;;;;;;;17.73;40.92;100409.97;5031094;28;20373;-74
2022/09/09 03:37:45;;;;;;;;;;;;;;;17.72;41.07;100409.09;5045808;28;19929;-74
2022/09/09 03:40:14;;;;;;;;;;;;;;;17.72;41.00;100409.09;5012853;28;19921;-74
2022/09/09 03:42:44;;;;;;;;;;;;;;;17.73;41.05;100412.72;5045232;28;19928;-74
2022/09/09 03:45:12;;;;;;;;;;;;;;;17.72;40.57;100411.00;5030796;28;20266;-74
2022/09/09 03:47:41;;;;;;;;;;;;;;;17.70;40.51;100405.66;5045668;28;19927;-74
2022/09/09 03:50:10;;;;;;;;;;;;;;;17.71;41.04;100406.53;5030991;28;19921;-74
2022/09/09 03:52:44;;;;;;;;;;;;;;;17.70;40.76;100404.81;5012270;28;19920;-74
2022/09/09 03:55:20;;;;;;;;;;;;;;;17.70;41.17;100402.03;5012913;28;19928;-74
2022/09/09 03:57:47;;;;;;;;;;;;;;;17.70;41.05;100404.81;5029424;28;19929;-74
2022/09/09 04:00:15;;;;;;;;;;;;;;;17.70;41.11;100408.44;5013402;28;19928;-74
2022/09/09 04:02:43;;;;;;;;;;;;;;;17.69;40.86;100403.94;5029627;28;20348;-74
2022/09/09 04:05:14;;;;;;;;;;;;;;;17.69;41.01;100412.25;5045810;28;19921;-74
2022/09/09 04:07:45;;;;;;;;;;;;;;;17.69;40.68;100415.00;5044546;28;19921;-74
2022/09/09 04:10:13;;;;;;;;;;;;;;;17.70;40.89;100413.97;5035268;28;19932;-74
2022/09/09 04:12:41;;;;;;;;;;;;;;;17.70;41.07;100408.44;5028059;28;19928;-74
2022/09/09 04:15:09;;;;;;;;;;;;;;;17.70;41.19;100413.09;5045590;28;19979;-74
2022/09/09 04:17:37;;;;;;;;;;;;;;;17.70;40.82;100415.88;5029852;28;19921;-73
2022/09/09 04:20:06;;;;;;;;;;;;;;;17.69;40.82;100408.63;5045514;28;19928;-74
2022/09/09 04:22:34;;;;;;;;;;;;;;;17.69;40.65;100408.63;5015979;28;19920;-73
2022/09/09 04:25:03;;;;;;;;;;;;;;;17.69;41.21;100412.25;5044608;28;20011;-74
2022/09/09 04:27:31;;;;;;;;;;;;;;;17.69;40.88;100403.09;5045698;28;19921;-74
2022/09/09 04:29:59;;;;;;;;;;;;;;;17.69;41.33;100403.94;5044863;28;20066;-74
2022/09/09 04:32:28;;;;;;;;;;;;;;;17.70;41.12;100407.56;5018848;28;20348;-74
2022/09/09 04:34:56;;;;;;;;;;;;;;;17.70;41.32;100411.19;4999690;28;20423;-74
2022/09/09 04:37:24;;;;;;;;;;;;;;;17.69;41.33;100406.72;5039220;28;20015;-74
2022/09/09 04:39:52;;;;;;;;;;;;;;;17.69;41.38;100409.47;5041327;28;20016;-74
2022/09/09 04:42:21;;;;;;;;;;;;;;;17.69;41.26;100405.84;5008573;28;20020;-72
2022/09/09 04:44:49;;;;;;;;;;;;;;;17.69;41.19;100408.63;5009408;28;20438;-71
2022/09/09 04:47:17;;;;;;;;;;;;;;;17.69;41.36;100405.84;5012438;28;19930;-72
2022/09/09 04:49:45;;;;;;;;;;;;;;;17.70;41.05;100410.34;5040422;28;20011;-71
2022/09/09 04:52:13;;;;;;;;;;;;;;;17.69;41.32;100409.47;5011306;28;19927;-71
2022/09/09 04:54:40;;;;;;;;;;;;;;;17.69;41.43;100414.16;5010264;28;20570;-71
2022/09/09 04:57:08;;;;;;;;;;;;;;;17.69;41.09;100408.63;5009697;28;20531;-72
2022/09/09 04:59:37;;;;;;;;;;;;;;;17.69;40.97;100412.25;5012951;28;19921;-71
2022/09/09 05:02:05;;;;;;;;;;;;;;;17.69;41.28;100408.63;5011131;28;19921;-71
2022/09/09 05:04:33;;;;;;;;;;;;;;;17.69;40.94;100408.63;5041192;28;19921;-71
2022/09/09 05:07:00;;;;;;;;;;;;;;;17.70;40.95;100415.88;5041651;28;19983;-71
2022/09/09 05:09:28;;;;;;;;;;;;;;;17.69;41.09;100412.25;5011031;28;19921;-71
2022/09/09 05:11:57;;;;;;;;;;;;;;;17.70;41.08;100408.44;5010842;28;20013;-71
2022/09/09 05:14:36;;;;;;;;;;;;;;;17.72;41.48;100413.78;5007651;28;20419;-70
2022/09/09 05:17:06;;;;;;;;;;;;;;;17.72;41.23;100408.25;5006030;28;19921;-71
2022/09/09 05:19:36;;;;;;;;;;;;;;;17.70;41.00;100402.91;5005712;28;20381;-70
2022/09/09 05:22:05;;;;;;;;;;;;;;;17.71;41.08;100412.91;5026060;28;19920;-72
2022/09/09 05:24:42;;;;;;;;;;;;;;;17.71;41.26;100407.38;5009887;28;19924;-70
2022/09/09 05:27:12;;;;;;;;;;;;;;;17.71;41.49;100401.00;5013509;28;19990;-70
2022/09/09 05:29:41;;;;;;;;;;;;;;;17.72;41.43;100405.47;5008308;28;19956;-70
2022/09/09 05:32:10;;;;;;;;;;;;;;;17.73;41.54;100398.91;5009408;28;20142;-70
2022/09/09 05:34:44;;;;;;;;;;;;;;;17.73;41.49;100398.91;5041968;28;19991;-70
2022/09/09 05:37:12;;;;;;;;;;;;;;;17.73;41.56;100396.97;5011729;28;19921;-70
2022/09/09 05:39:39;;;;;;;;;;;;;;;17.74;41.49;100392.31;5009509;28;19936;-70
2022/09/09 05:42:07;;;;;;;;;;;;;;;17.74;41.30;100398.72;5026715;28;19956;-70
2022/09/09 05:44:35;;;;;;;;;;;;;;;17.75;41.58;100402.34;5009603;28;19920;-71
2022/09/09 05:47:03;;;;;;;;;;;;;;;17.76;41.02;100404.06;5003773;28;19925;-69
2022/09/09 05:49:33;;;;;;;;;;;;;;;17.76;41.17;100398.53;5004876;28;20569;-69
2022/09/09 05:52:03;;;;;;;;;;;;;;;17.76;41.18;100404.06;5022961;28;20015;-69
2022/09/09 05:54:32;;;;;;;;;;;;;;;17.77;41.50;100405.78;5005909;28;20492;-69
2022/09/09 05:57:00;;;;;;;;;;;;;;;17.78;41.22;100415.81;5025621;28;20448;-69
2022/09/09 05:59:29;;;;;;;;;;;;;;;17.79;41.21;100414.75;5006809;28;19928;-70
2022/09/09 06:01:57;;;;;;;;;;;;;;;17.80;41.37;100413.72;5011762;28;19921;-69
2022/09/09 06:04:32;;;;;;;;;;;;;;;17.81;41.70;100412.66;5007054;28;20102;-69
2022/09/09 06:07:01;;;;;;;;;;;;;;;17.82;41.48;100414.34;5009902;28;19928;-70
2022/09/09 06:09:30;;;;;;;;;;;;;;;17.83;41.29;100415.22;5012165;28;19925;-69
2022/09/09 06:11:58;;;;;;;;;;;;;;;17.85;41.21;100418.66;5008165;28;20004;-69
2022/09/09 06:14:27;;;;;;;;;;;;;;;17.85;41.42;100418.66;5028122;28;19964;-70
2022/09/09 06:16:57;;;;;;;;;;;;;;;17.86;41.46;100410.16;5030569;28;19921;-69
2022/09/09 06:19:30;;;;;;;;;;;;;;;17.87;41.50;100416.56;5011721;28;20024;-70
2022/09/09 06:22:00;;;;;;;;;;;;;;;17.88;41.66;100419.16;5037113;28;21567;-70
2022/09/09 06:24:31;;;;;;;;;;;;;;;17.89;41.46;100415.31;5041321;28;20450;-69
2022/09/09 06:27:01;;;;;;;;;;;;;;;17.91;41.20;100424.28;5020234;28;19939;-69
2022/09/09 06:29:34;;;;;;;;;;;;;;;17.93;41.46;100422.19;5005497;28;19921;-69
2022/09/09 06:32:03;;;;;;;;;;;;;;;17.95;41.58;100424.75;5010755;28;19971;-69
2022/09/09 06:34:31;;;;;;;;;;;;;;;17.97;41.10;100425.44;5033057;28;19944;-69
2022/09/09 06:37:01;;;;;;;;;;;;;;;17.98;41.41;100422.44;5040064;28;19952;-69
2022/09/09 06:39:37;;;;;;;;;;;;;;;18.00;41.37;100419.50;5015001;28;19931;-69
2022/09/09 06:42:08;;;;;;;;;;;;;;;18.01;40.91;100423.97;5025495;28;20267;-69
2022/09/09 06:44:54;;;;;;;;;;;;;;;18.03;41.03;100419.97;5027427;28;19927;-71
2022/09/09 06:47:31;;;;;;;;;;;;;;;18.05;41.27;100425.31;5037573;28;19964;-69
2022/09/09 06:50:01;;;;;;;;;;;;;;;18.06;40.85;100421.50;5007506;28;19925;-69
2022/09/09 06:52:34;;;;;;;;;;;;;;;18.08;41.36;100430.47;5003664;28;19925;-71
2022/09/09 06:55:03;;;;;;;;;;;;;;;18.11;41.18;100424.53;5014001;28;20416;-72
2022/09/09 06:57:32;;;;;;;;;;;;;;;18.13;40.79;100427.97;5045503;28;20008;-70
2022/09/09 07:00:08;;;;;;;;;;;;;;;18.17;41.23;100425.66;5044358;28;19921;-69
2022/09/09 07:02:39;;;;;;;;;;;;;;;18.21;40.85;100425.09;5012434;28;19929;-69
2022/09/09 07:05:09;;;;;;;;;;;;;;;18.25;41.25;100431.09;5045164;28;19951;-69
2022/09/09 07:07:38;;;;;;;;;;;;;;;18.27;40.69;100427.09;5015928;28;19921;-69
2022/09/09 07:10:08;;;;;;;;;;;;;;;18.31;40.94;100435.84;5015983;28;19975;-69
2022/09/09 07:12:37;;;;;;;;;;;;;;;18.33;40.75;100429.06;5032850;28;19964;-69
2022/09/09 07:15:06;;;;;;;;;;;;;;;18.37;41.08;100435.09;4992520;28;20353;-69
2022/09/09 07:17:33;;;;;;;;;;;;;;;18.39;40.44;100432.97;5010866;28;20034;-70
2022/09/09 07:20:01;;;;;;;;;;;;;;;18.41;40.48;100434.47;5012021;28;20157;-69
2022/09/09 07:22:30;;;;;;;;;;;;;;;18.43;40.60;100434.28;5007941;28;19921;-69
2022/09/09 07:25:00;;;;;;;;;;;;;;;18.44;40.88;100434.09;5037185;28;19931;-69
2022/09/09 07:27:27;;;;;;;;;;;;;;;18.47;40.78;100441.19;5014234;28;19928;-69
2022/09/09 07:29:57;;;;;;;;;;;;;;;18.48;40.22;100445.63;5046393;28;19928;-69
2022/09/09 07:32:25;;;;;;;;;;;;;;;18.50;40.76;100446.34;5040854;28;20305;-69
2022/09/09 07:34:53;;;;;;;;;;;;;;;18.51;40.30;100445.28;5045782;28;19925;-69
2022/09/09 07:37:21;;;;;;;;;;;;;;;18.52;40.58;100452.53;5017487;28;20052;-69
2022/09/09 07:39:51;;;;;;;;;;;;;;;18.54;40.49;100446.81;5020255;28;19921;-69
2022/09/09 07:42:20;;;;;;;;;;;;;;;18.55;40.19;100454.09;5012658;28;19921;-69
2022/09/09 07:44:48;;;;;;;;;;;;;;;18.56;40.66;100450.22;5009773;28;20004;-70
2022/09/09 07:47:16;;;;;;;;;;;;;;;18.60;40.39;100454.34;5012787;28;20509;-69
2022/09/09 07:49:48;;;;;;;;;;;;;;;18.61;40.26;100467.16;5010678;28;20283;-69
2022/09/09 07:52:19;;;;;;;;;;;;;;;18.65;40.12;100458.22;5010032;28;19947;-70
2022/09/09 07:54:53;;;;;;;;;;;;;;;18.68;40.59;100457.84;5019687;28;19976;-69
2022/09/09 07:57:22;;;;;;;;;;;;;;;18.71;40.03;100460.22;5014023;28;20415;-71
2022/09/09 07:59:52;;;;;;;;;;;;;;;18.74;39.95;100461.72;5012703;28;19960;-69
2022/09/09 08:02:20;;;;;;;;;;;;;;;18.77;39.97;100464.97;5018906;28;19925;-69
2022/09/09 08:04:47;;;;;;;;;;;;;;;18.80;40.37;100466.50;5014543;28;19928;-69
2022/09/09 08:07:17;;;;;;;;;;;;;;;18.82;39.98;100458.81;5036266;28;19929;-69
2022/09/09 08:09:50;;;;;;;;;;;;;;;18.85;39.87;100463.97;5041658;28;19921;-68
2022/09/09 08:12:24;;;;;;;;;;;;;;;18.86;40.23;100471.25;5014053;28;19925;-69
2022/09/09 08:14:53;;;;;;;;;;;;;;;18.88;39.96;100467.19;5010660;28;20615;-69
2022/09/09 08:17:25;;;;;;;;;;;;;;;18.87;39.90;100462.75;5030705;28;19921;-70
2022/09/09 08:19:53;;;;;;;;;;;;;;;18.89;39.48;100463.38;5010784;28;19975;-69
2022/09/09 08:22:26;;;;;;;;;;;;;;;18.90;39.66;100470.63;5010028;28;19929;-69
2022/09/09 08:24:54;;;;;;;;;;;;;;;18.92;39.79;100464.03;5018109;28;20381;-69
2022/09/09 08:27:22;;;;;;;;;;;;;;;18.95;39.53;100469.22;4996430;28;19929;-69
2022/09/09 08:29:51;;;;;;;;;;;;;;;18.97;39.61;100464.28;5010968;28;19975;-69
2022/09/09 08:32:19;;;;;;;;;;;;;;;19.03;39.59;100471.84;5040566;28;20372;-69
2022/09/09 08:34:47;;;;;;;;;;;;;;;19.06;39.30;100458.41;5025963;28;20364;-69
2022/09/09 08:37:21;;;;;;;;;;;;;;;19.12;39.31;100467.88;5009643;28;19921;-69
2022/09/09 08:39:49;;;;;;;;;;;;;;;19.18;39.59;100458.75;5011796;28;19927;-71
2022/09/09 08:42:29;;;;;;;;;;;;;;;19.24;39.10;100466.28;5007983;28;19927;-71
2022/09/09 08:45:04;;;;;;;;;;;;;;;19.27;39.39;100472.31;5005205;28;20361;-69
2022/09/09 08:47:36;;;;;;;;;;;;;;;19.32;38.74;100468.91;5031062;28;19921;-69
2022/09/09 08:50:08;;;;;;;;;;;;;;;19.37;38.72;100465.56;5012686;28;19968;-70
2022/09/09 08:52:39;;;;;;;;;;;;;;;19.40;38.90;100468.78;5012894;28;20382;-70
2022/09/09 08:55:21;;;;;;;;;;;;;;;19.44;38.96;100472.00;5007092;28;19922;-70
2022/09/09 08:57:51;;;;;;;;;;;;;;;19.48;38.98;100459.44;5017071;28;20378;-70
2022/09/09 09:00:21;;;;;;;;;;;;;;;19.51;38.74;100465.44;5018497;28;19928;-70
2022/09/09 09:02:56;;;;;;;;;;;;;;;19.56;39.05;100470.38;5015093;28;20305;-70
2022/09/09 09:05:29;;;;;;;;;;;;;;;19.60;38.77;100464.22;5011232;28;19947;-70
2022/09/09 09:08:03;;;;;;;;;;;;;;;19.65;38.31;100469.16;5010013;28;20381;-70
2022/09/09 09:10:44;;;;;;;;;;;;;;;19.71;38.74;100467.50;5011066;28;19929;-70
2022/09/09 09:13:18;;;;;;;;;;;;;;;19.73;38.67;100465.38;5007346;28;20008;-70
2022/09/09 09:15:51;;;;;;;;;;;;;;;19.77;38.20;100463.91;5014800;28;19921;-70
2022/09/09 09:18:19;;;;;;;;;;;;;;;19.79;38.39;100478.47;5036889;28;20532;-70
2022/09/09 09:20:52;;;;;;;;;;;;;;;19.81;38.38;100477.16;5026982;28;19921;-70
2022/09/09 09:23:22;;;;;;;;;;;;;;;19.82;38.10;100478.88;5026990;28;20056;-71
2022/09/09 09:25:54;;;;;;;;;;;;;;;19.84;38.25;100478.69;5013080;28;19927;-70
2022/09/09 09:28:24;;;;;;;;;;;;;;;19.85;37.81;100484.06;5009348;28;19924;-70
2022/09/09 09:31:00;;;;;;;;;;;;;;;19.84;37.75;100482.31;5007694;28;19921;-71
2022/09/09 09:33:34;;;;;;;;;;;;;;;19.83;37.67;100486.16;5007706;28;19967;-72
2022/09/09 09:36:03;;;;;;;;;;;;;;;19.82;37.86;100481.66;5041053;28;19921;-70
2022/09/09 09:38:31;;;;;;;;;;;;;;;19.82;37.36;100472.47;5040173;28;20012;-71
2022/09/09 09:41:29;;;;;;;;;;;;;;;19.81;37.63;100476.31;5027902;28;19944;-70
2022/09/09 09:43:58;;;;;;;;;;;;;;;19.81;37.32;100487.41;5010650;28;19978;-72
2022/09/09 09:46:27;;;;;;;;;;;;;;;19.81;37.28;100487.41;5013652;28;19924;-72
2022/09/09 09:49:05;;;;;;;;;;;;;;;19.84;37.67;100485.09;5008108;28;19940;-71
2022/09/09 09:51:34;;;;;;;;;;;;;;;19.87;37.58;100483.84;5012122;28;19933;-72
2022/09/09 09:54:10;;;;;;;;;;;;;;;19.93;37.88;100483.91;5011628;28;20012;-71
2022/09/09 09:56:39;;;;;;;;;;;;;;;20.01;37.50;100482.88;5035342;28;20368;-72
2022/09/09 09:59:20;;;;;;;;;;;;;;;20.08;37.87;100478.22;5007144;28;19921;-72
2022/09/09 10:02:17;;;;;;;;;;;;;;;20.17;37.80;100468.66;5005903;28;19929;-72
2022/09/09 10:04:48;;;;;;;;;;;;;;;20.24;37.52;100483.44;5006354;28;19927;-72
2022/09/09 10:07:19;;;;;;;;;;;;;;;20.34;37.56;100477.50;5040485;28;20047;-72
2022/09/09 10:09:47;;;;;;;;;;;;;;;20.42;37.60;100482.88;5024616;28;19947;-72
2022/09/09 10:12:22;;;;;;;;;;;;;;;20.48;37.78;100462.56;5024789;28;19983;-72
2022/09/09 10:14:55;;;;;;;;;;;;;;;20.56;37.10;100478.19;5021675;28;20399;-71
2022/09/09 10:17:31;;;;;;;;;;;;;;;20.62;37.33;100472.69;5025389;28;19925;-70
2022/09/09 10:20:11;;;;;;;;;;;;;;;20.68;36.81;100474.66;5025560;28;20369;-70
2022/09/09 10:22:41;;;;;;;;;;;;;;;20.75;36.85;100461.63;5022410;28;20015;-72
2022/09/09 10:25:22;;;;;;;;;;;;;;;20.80;36.94;100472.09;5025171;28;19920;-71
2022/09/09 10:28:03;;;;;;;;;;;;;;;20.87;36.90;100472.09;5026438;28;19929;-74
2022/09/09 10:30:35;;;;;;;;;;;;;;;20.94;36.64;100473.84;5008140;28;20020;-70
2022/09/09 10:33:09;;;;;;;;;;;;;;;20.99;37.03;100471.28;5025647;28;19925;-70
2022/09/09 10:35:45;;;;;;;;;;;;;;;21.06;36.60;100469.34;5023282;28;20019;-70
2022/09/09 10:38:15;;;;;;;;;;;;;;;21.11;36.70;100461.22;5027586;28;19921;-71
2022/09/09 10:40:51;;;;;;;;;;;;;;;21.15;36.68;100456.94;5016226;28;19921;-70
2022/09/09 10:43:25;;;;;;;;;;;;;;;21.20;36.54;100463.78;5025362;28;20332;-71
2022/09/09 10:45:58;;;;;;;;;;;;;;;21.23;36.39;100457.81;5021602;28;19921;-70
2022/09/09 10:48:32;;;;;;;;;;;;;;;21.26;36.33;100461.06;5018221;28;19932;-70
2022/09/09 10:51:09;;;;;;;;;;;;;;;21.29;36.32;100460.63;5022003;28;19947;-70
2022/09/09 10:53:38;;;;;;;;;;;;;;;21.31;36.25;100464.03;5021147;28;19925;-71
2022/09/09 10:56:08;;;;;;;;;;;;;;;21.32;36.15;100460.19;5028675;28;20019;-72
2022/09/09 10:58:39;;;;;;;;;;;;;;;21.31;35.73;100455.69;5021248;28;19925;-70
2022/09/09 11:01:10;;;;;;;;;;;;;;;21.31;36.10;100455.69;5022719;28;19925;-70
2022/09/09 11:03:41;;;;;;;;;;;;;;;21.31;36.04;100458.47;5023544;28;20374;-72
2022/09/09 11:06:13;;;;;;;;;;;;;;;21.29;36.11;100457.81;5035096;28;19921;-72
2022/09/09 11:08:41;;;;;;;;;;;;;;;21.28;35.68;100449.69;5017537;28;20027;-69
2022/09/09 11:11:11;;;;;;;;;;;;;;;21.25;35.53;100448.19;5021206;28;19925;-69
2022/09/09 11:13:43;;;;;;;;;;;;;;;21.21;35.52;100455.22;5027397;28;19955;-70
2022/09/09 11:16:17;;;;;;;;;;;;;;;21.21;35.53;100448.81;5025824;28;20024;-69
2022/09/09 11:18:47;;;;;;;;;;;;;;;21.18;35.42;100446.47;5022173;28;19933;-70
2022/09/09 11:21:22;;;;;;;;;;;;;;;21.15;35.45;100453.31;5022584;28;19967;-69
2022/09/09 11:23:52;;;;;;;;;;;;;;;21.12;35.23;100462.06;5009082;28;20632;-70
2022/09/09 11:26:30;;;;;;;;;;;;;;;21.08;35.63;100470.00;5037404;28;20000;-70
2022/09/09 11:29:04;;;;;;;;;;;;;;;21.06;35.83;100468.50;5022203;28;20385;-69
2022/09/09 11:31:39;;;;;;;;;;;;;;;21.02;35.83;100454.16;5020916;28;19921;-69
2022/09/09 11:34:28;;;;;;;;;;;;;;;21.00;35.98;100461.00;5023698;28;20370;-70
2022/09/09 11:37:10;;;;;;;;;;;;;;;20.94;36.22;100465.50;5020205;28;19995;-69
2022/09/09 11:40:01;;;;;;;;;;;;;;;20.92;36.17;100455.66;5020364;28;19931;-70
2022/09/09 11:42:29;;;;;;;;;;;;;;;20.88;36.43;100451.56;5026103;28;19963;-69
2022/09/09 11:44:57;;;;;;;;;;;;;;;20.86;35.98;100450.94;5028244;28;19925;-68
2022/09/09 11:47:30;;;;;;;;;;;;;;;20.85;36.38;100460.34;5009510;28;19975;-69
2022/09/09 11:50:09;;;;;;;;;;;;;;;20.84;36.11;100459.50;5022368;28;19929;-69
2022/09/09 11:52:38;;;;;;;;;;;;;;;20.83;36.45;100454.13;5024598;28;19921;-69
2022/09/09 11:55:10;;;;;;;;;;;;;;;20.82;36.56;100450.50;5028086;28;20436;-69
2022/09/09 11:57:38;;;;;;;;;;;;;;;20.83;36.06;100451.34;5031152;28;20377;-69
2022/09/09 12:00:07;;;;;;;;;;;;;;;20.83;36.05;100452.22;5025611;28;19924;-69
2022/09/09 12:02:49;;;;;;;;;;;;;;;20.83;35.99;100460.56;5030959;28;19921;-70
2022/09/09 12:05:19;;;;;;;;;;;;;;;20.83;36.16;100459.69;5008271;28;19933;-69
2022/09/09 12:07:53;;;;;;;;;;;;;;;20.81;35.88;100489.63;5027197;28;19921;-69
2022/09/09 12:10:23;;;;;;;;;;;;;;;20.80;36.10;100474.88;5025202;28;19988;-68
2022/09/09 12:12:51;;;;;;;;;;;;;;;20.76;35.87;100457.78;5031502;28;19943;-69
2022/09/09 12:15:21;;;;;;;;;;;;;;;20.74;36.35;100468.25;5027924;28;19932;-70
2022/09/09 12:17:51;;;;;;;;;;;;;;;20.73;36.26;100468.44;5027198;28;19929;-69
2022/09/09 12:20:21;;;;;;;;;;;;;;;20.70;36.34;100458.59;5024501;28;19920;-70
2022/09/09 12:22:57;;;;;;;;;;;;;;;20.69;36.20;100453.25;5024981;28;20404;-69
2022/09/09 12:25:31;;;;;;;;;;;;;;;20.68;36.34;100460.75;5027116;28;19928;-70
2022/09/09 12:28:04;;;;;;;;;;;;;;;20.69;36.38;100458.81;5025836;28;19929;-70
2022/09/09 12:30:35;;;;;;;;;;;;;;;20.71;36.37;100453.88;5011537;28;19940;-69
2022/09/09 12:33:03;;;;;;;;;;;;;;;20.72;36.40;100463.94;5026508;28;19921;-69
2022/09/09 12:35:32;;;;;;;;;;;;;;;20.75;36.17;100455.19;5028014;28;19933;-70
2022/09/09 12:38:02;;;;;;;;;;;;;;;20.75;36.42;100455.19;5024314;28;19940;-70
2022/09/09 12:40:32;;;;;;;;;;;;;;;20.78;36.48;100446.41;5026916;28;19921;-69
2022/09/09 12:43:01;;;;;;;;;;;;;;;20.81;36.39;100450.69;5024719;28;19929;-70
2022/09/09 12:45:31;;;;;;;;;;;;;;;20.83;35.94;100440.22;5027356;28;20421;-69
2022/09/09 12:48:00;;;;;;;;;;;;;;;20.85;35.85;100441.75;5025011;28;19929;-70
2022/09/09 12:50:29;;;;;;;;;;;;;;;20.89;35.79;100442.16;5024294;28;20500;-70
2022/09/09 12:52:59;;;;;;;;;;;;;;;20.91;36.08;100440.03;5005421;28;20172;-70
2022/09/09 12:55:29;;;;;;;;;;;;;;;20.93;35.70;100432.34;5027071;28;20377;-69
2022/09/09 12:57:59;;;;;;;;;;;;;;;20.94;35.84;100434.91;5067353;22;19920;-83